createdAt,value
2017-05-31T00:01:38.704Z,59.00
2017-05-31T00:04:07.680Z,58.80
2017-05-31T00:06:36.679Z,58.80
2017-05-31T00:09:05.708Z,58.80
2017-05-31T00:11:34.636Z,58.80
2017-05-31T00:14:03.595Z,58.70
2017-05-31T00:16:31.808Z,58.70
2017-05-31T00:19:01.712Z,58.40
2017-05-31T00:21:30.703Z,58.40
2017-05-31T00:23:59.637Z,58.30
2017-05-31T00:26:28.567Z,58.00
2017-05-31T00:28:57.541Z,58.40
2017-05-31T00:31:26.737Z,58.10
2017-05-31T00:33:55.665Z,58.10
2017-05-31T00:36:25.625Z,57.80
2017-05-31T00:38:54.561Z,58.30
2017-05-31T00:41:23.502Z,57.70
2017-05-31T00:43:52.856Z,57.70
2017-05-31T00:46:21.800Z,57.50
2017-05-31T00:48:50.741Z,56.20
2017-05-31T00:51:19.721Z,57.40
2017-05-31T00:53:48.653Z,57.50
2017-05-31T00:56:17.578Z,57.50
2017-05-31T00:58:46.566Z,57.30
2017-05-31T01:01:15.492Z,57.20
2017-05-31T01:03:44.422Z,57.20
2017-05-31T01:06:13.407Z,57.10
2017-05-31T01:08:42.337Z,57.00
2017-05-31T01:11:11.266Z,57.00
2017-05-31T01:13:40.244Z,57.00
2017-05-31T01:16:09.173Z,57.10
2017-05-31T01:18:38.106Z,57.00
2017-05-31T01:21:07.081Z,56.90
2017-05-31T01:23:36.015Z,56.80
2017-05-31T01:26:04.963Z,56.70
2017-05-31T01:28:33.964Z,56.70
2017-05-31T01:31:02.901Z,56.80
2017-05-31T01:33:31.872Z,56.80
2017-05-31T01:36:00.846Z,56.80
2017-05-31T01:38:29.765Z,56.80
2017-05-31T01:40:58.740Z,56.80
2017-05-31T01:43:26.904Z,56.80
2017-05-31T01:45:55.833Z,56.70
2017-05-31T01:48:24.059Z,56.70
2017-05-31T01:50:52.990Z,56.70
2017-05-31T01:53:21.924Z,56.60
2017-05-31T01:55:50.911Z,56.70
2017-05-31T01:58:19.840Z,56.80
2017-05-31T02:00:48.768Z,56.80
2017-05-31T02:03:17.757Z,56.90
2017-05-31T02:05:46.680Z,56.80
2017-05-31T02:08:15.608Z,56.90
2017-05-31T02:10:44.609Z,56.80
2017-05-31T02:13:13.538Z,56.80
2017-05-31T02:15:42.477Z,56.80
2017-05-31T02:18:11.449Z,56.80
2017-05-31T02:20:40.427Z,56.70
2017-05-31T02:23:09.353Z,56.90
2017-05-31T02:25:38.278Z,56.90
2017-05-31T02:28:07.267Z,56.90
2017-05-31T02:30:36.198Z,56.90
2017-05-31T02:33:05.130Z,56.90
2017-05-31T02:35:34.153Z,56.90
2017-05-31T02:38:03.089Z,56.80
2017-05-31T02:40:32.053Z,56.80
2017-05-31T02:43:01.367Z,56.80
2017-05-31T02:45:30.304Z,56.80
2017-05-31T02:47:59.276Z,56.80
2017-05-31T02:50:28.248Z,56.80
2017-05-31T02:52:57.181Z,56.80
2017-05-31T02:55:26.127Z,56.80
2017-05-31T02:57:55.108Z,56.90
2017-05-31T03:00:24.044Z,56.90
2017-05-31T03:02:52.968Z,57.00
2017-05-31T03:05:21.957Z,57.00
2017-05-31T03:07:50.894Z,56.90
2017-05-31T03:10:19.816Z,56.80
2017-05-31T03:12:48.789Z,56.70
2017-05-31T03:15:17.724Z,56.60
2017-05-31T03:17:46.666Z,56.70
2017-05-31T03:20:15.636Z,57.20
2017-05-31T03:22:44.618Z,56.60
2017-05-31T03:25:13.544Z,56.50
2017-05-31T03:27:42.477Z,56.40
2017-05-31T03:30:11.454Z,56.50
2017-05-31T03:32:40.431Z,56.70
2017-05-31T03:35:09.356Z,56.80
2017-05-31T03:37:38.284Z,57.00
2017-05-31T03:40:07.260Z,56.90
2017-05-31T03:42:36.193Z,56.60
2017-05-31T03:45:04.352Z,56.60
2017-05-31T03:47:33.333Z,56.90
2017-05-31T03:50:02.301Z,57.20
2017-05-31T03:52:31.264Z,57.10
2017-05-31T03:55:00.275Z,57.20
2017-05-31T03:57:29.267Z,56.80
2017-05-31T03:59:58.199Z,57.30
2017-05-31T04:02:27.124Z,56.90
2017-05-31T04:04:56.108Z,57.20
2017-05-31T04:07:25.036Z,57.00
2017-05-31T04:09:53.989Z,56.90
2017-05-31T04:12:22.973Z,56.70
2017-05-31T04:14:51.901Z,57.00
2017-05-31T04:17:20.832Z,57.00
2017-05-31T04:19:49.833Z,56.90
2017-05-31T04:22:18.768Z,56.90
2017-05-31T04:24:47.696Z,57.00
2017-05-31T04:27:17.505Z,57.10
2017-05-31T04:29:46.438Z,57.00
2017-05-31T04:32:15.373Z,56.80
2017-05-31T04:34:44.357Z,56.20
2017-05-31T04:37:13.399Z,57.10
2017-05-31T04:39:42.404Z,56.80
2017-05-31T04:42:11.382Z,57.00
2017-05-31T04:44:40.316Z,57.10
2017-05-31T04:47:09.312Z,56.90
2017-05-31T04:49:38.275Z,57.10
2017-05-31T04:52:07.207Z,56.70
2017-05-31T04:54:36.183Z,56.50
2017-05-31T04:57:05.119Z,56.80
2017-05-31T04:59:34.057Z,57.10
2017-05-31T05:02:03.036Z,57.00
2017-05-31T05:04:32.012Z,56.90
2017-05-31T05:07:00.940Z,57.30
2017-05-31T05:09:29.929Z,57.30
2017-05-31T05:11:58.860Z,56.70
2017-05-31T05:14:27.783Z,56.70
2017-05-31T05:16:56.743Z,57.30
2017-05-31T05:19:25.716Z,56.60
2017-05-31T05:21:54.699Z,56.60
2017-05-31T05:24:22.870Z,56.60
2017-05-31T05:26:51.889Z,56.00
2017-05-31T05:29:20.826Z,56.60
2017-05-31T05:31:49.765Z,56.20
2017-05-31T05:34:17.986Z,56.20
2017-05-31T05:36:46.916Z,55.90
2017-05-31T05:39:15.860Z,55.80
2017-05-31T05:41:44.831Z,55.70
2017-05-31T05:44:13.760Z,55.40
2017-05-31T05:46:42.730Z,55.50
2017-05-31T05:49:11.664Z,55.60
2017-05-31T05:51:40.597Z,55.70
2017-05-31T05:54:09.577Z,55.60
2017-05-31T05:56:38.508Z,55.40
2017-05-31T05:59:07.435Z,55.50
2017-05-31T06:01:36.399Z,55.60
2017-05-31T06:04:05.369Z,55.80
2017-05-31T06:06:34.369Z,55.60
2017-05-31T06:09:03.295Z,55.70
2017-05-31T06:11:32.281Z,55.80
2017-05-31T06:14:01.280Z,55.60
2017-05-31T06:16:30.209Z,55.60
2017-05-31T06:18:59.137Z,55.60
2017-05-31T06:21:28.120Z,56.10
2017-05-31T06:23:57.082Z,55.70
2017-05-31T06:26:26.018Z,56.10
2017-05-31T06:28:55.045Z,55.90
2017-05-31T06:31:24.005Z,56.00
2017-05-31T06:33:52.934Z,55.70
2017-05-31T06:36:21.924Z,55.40
2017-05-31T06:38:50.861Z,55.10
2017-05-31T06:41:19.796Z,55.50
2017-05-31T06:43:49.150Z,55.40
2017-05-31T06:46:18.161Z,54.90
2017-05-31T06:48:47.147Z,56.30
2017-05-31T06:51:16.075Z,55.20
2017-05-31T06:53:45.007Z,55.00
2017-05-31T06:56:13.992Z,55.10
2017-05-31T06:58:43.865Z,54.90
2017-05-31T07:01:12.833Z,55.10
2017-05-31T07:03:41.806Z,54.40
2017-05-31T07:06:10.765Z,54.80
2017-05-31T07:08:39.732Z,54.40
2017-05-31T07:11:08.651Z,54.80
2017-05-31T07:13:37.624Z,54.50
2017-05-31T07:16:06.567Z,54.80
2017-05-31T07:18:34.728Z,54.80
2017-05-31T07:21:03.732Z,54.70
2017-05-31T07:25:32.395Z,51.80
2017-05-31T07:28:01.403Z,49.70
2017-05-31T07:30:30.353Z,50.80
2017-05-31T07:32:59.379Z,50.70
2017-05-31T07:35:28.372Z,53.00
2017-05-31T07:37:57.369Z,53.70
2017-05-31T07:40:26.356Z,56.50
2017-05-31T07:42:55.317Z,56.40
2017-05-31T07:45:24.240Z,56.10
2017-05-31T07:47:53.232Z,58.20
2017-05-31T07:50:22.156Z,56.60
2017-05-31T07:52:51.081Z,57.80
2017-05-31T07:55:20.108Z,59.00
2017-05-31T07:57:49.032Z,57.80
2017-05-31T08:00:17.957Z,58.10
2017-05-31T08:02:46.931Z,58.80
2017-05-31T08:05:15.877Z,59.70
2017-05-31T08:07:44.874Z,59.60
2017-05-31T08:10:13.969Z,60.40
2017-05-31T08:12:42.912Z,61.60
2017-05-31T08:15:11.852Z,62.80
2017-05-31T08:17:40.845Z,64.40
2017-05-31T08:20:09.828Z,64.30
2017-05-31T08:22:38.792Z,64.90
2017-05-31T08:25:07.767Z,63.30
2017-05-31T08:27:36.693Z,62.20
2017-05-31T08:30:05.615Z,62.10
2017-05-31T08:32:34.900Z,60.00
2017-05-31T08:35:03.892Z,61.10
2017-05-31T08:37:32.821Z,58.00
2017-05-31T08:40:01.785Z,57.20
2017-05-31T08:42:30.760Z,60.20
2017-05-31T08:44:59.680Z,58.70
2017-05-31T08:47:28.656Z,56.10
2017-05-31T08:49:57.623Z,58.10
2017-05-31T08:52:26.640Z,55.80
2017-05-31T08:54:55.641Z,55.70
2017-05-31T08:57:24.608Z,56.00
2017-05-31T08:59:53.620Z,56.00
2017-05-31T09:02:22.617Z,56.30
2017-05-31T09:04:51.597Z,55.60
2017-05-31T09:07:20.521Z,55.40
2017-05-31T09:09:49.488Z,56.00
2017-05-31T09:12:18.448Z,53.80
2017-05-31T09:14:47.416Z,54.40
2017-05-31T09:17:16.409Z,54.90
2017-05-31T09:19:45.360Z,54.70
2017-05-31T09:22:14.285Z,54.60
2017-05-31T09:24:43.257Z,54.80
2017-05-31T09:27:12.237Z,54.70
2017-05-31T09:29:41.229Z,55.80
2017-05-31T09:32:10.216Z,54.90
2017-05-31T09:34:39.140Z,54.70
2017-05-31T09:37:08.103Z,56.70
2017-05-31T09:39:37.101Z,53.00
2017-05-31T09:42:06.154Z,54.50
2017-05-31T09:44:35.072Z,56.00
2017-05-31T09:47:04.044Z,54.20
2017-05-31T09:49:32.968Z,54.30
2017-05-31T09:52:02.064Z,54.70
2017-05-31T09:54:31.061Z,55.00
2017-05-31T09:57:00.005Z,53.60
2017-05-31T09:59:28.963Z,52.60
2017-05-31T10:01:57.911Z,54.00
2017-05-31T10:04:26.868Z,51.80
2017-05-31T10:06:55.788Z,53.50
2017-05-31T10:09:24.763Z,52.60
2017-05-31T10:11:53.786Z,54.30
2017-05-31T10:14:22.775Z,51.30
2017-05-31T10:16:51.757Z,49.60
2017-05-31T10:19:21.342Z,48.80
2017-05-31T10:21:50.308Z,50.20
2017-05-31T10:24:19.237Z,49.70
2017-05-31T10:26:48.254Z,48.40
2017-05-31T10:29:17.216Z,50.20
2017-05-31T10:31:46.144Z,48.90
2017-05-31T10:34:15.162Z,46.20
2017-05-31T10:36:44.085Z,45.50
2017-05-31T10:39:13.009Z,46.30
2017-05-31T10:41:42.005Z,45.00
2017-05-31T10:44:11.001Z,45.60
2017-05-31T10:46:39.960Z,46.00
2017-05-31T10:49:14.848Z,46.40
2017-05-31T10:51:43.896Z,47.80
2017-05-31T10:54:12.898Z,49.20
2017-05-31T10:56:41.831Z,47.50
2017-05-31T10:59:10.812Z,47.70
2017-05-31T11:01:39.748Z,45.70
2017-05-31T11:04:08.669Z,46.70
2017-05-31T11:06:37.640Z,45.30
2017-05-31T11:09:06.568Z,46.70
2017-05-31T11:11:35.498Z,48.10
2017-05-31T11:14:04.541Z,44.30
2017-05-31T11:16:33.468Z,46.00
2017-05-31T11:19:02.398Z,45.30
2017-05-31T11:21:31.370Z,46.00
2017-05-31T11:24:00.292Z,46.80
2017-05-31T11:26:29.392Z,43.60
2017-05-31T11:28:58.361Z,45.00
2017-05-31T11:31:27.295Z,43.30
2017-05-31T11:33:56.296Z,45.20
2017-05-31T11:36:25.345Z,44.30
2017-05-31T11:38:54.317Z,45.60
2017-05-31T11:41:23.324Z,45.50
2017-05-31T11:43:52.248Z,43.10
2017-05-31T11:46:21.312Z,42.50
2017-05-31T11:48:50.309Z,42.10
2017-05-31T11:51:19.301Z,42.30
2017-05-31T11:53:48.227Z,41.60
2017-05-31T11:56:17.193Z,43.40
2017-05-31T11:58:46.164Z,44.00
2017-05-31T12:01:15.089Z,45.80
2017-05-31T12:03:44.164Z,42.80
2017-05-31T12:06:13.160Z,42.30
2017-05-31T12:08:42.114Z,43.80
2017-05-31T12:11:11.105Z,40.00
2017-05-31T12:13:40.133Z,38.10
2017-05-31T12:16:09.060Z,38.80
2017-05-31T12:18:38.024Z,41.80
2017-05-31T12:21:07.013Z,41.10
2017-05-31T12:23:36.009Z,41.00
2017-05-31T12:26:04.941Z,41.10
2017-05-31T12:28:33.865Z,40.10
2017-05-31T12:31:02.828Z,41.40
2017-05-31T12:33:31.858Z,39.90
2017-05-31T12:36:00.863Z,38.60
2017-05-31T12:38:29.918Z,38.90
2017-05-31T12:40:58.855Z,40.70
2017-05-31T12:43:27.821Z,40.40
2017-05-31T12:45:56.753Z,40.70
2017-05-31T12:48:25.781Z,38.10
2017-05-31T12:50:54.776Z,39.50
2017-05-31T12:53:23.708Z,39.30
2017-05-31T12:55:52.672Z,38.50
2017-05-31T12:58:21.754Z,38.40
2017-05-31T13:00:50.729Z,39.50
2017-05-31T13:03:19.728Z,42.40
2017-05-31T13:05:48.655Z,40.50
2017-05-31T13:08:17.728Z,43.10
2017-05-31T13:10:46.692Z,40.70
2017-05-31T13:13:15.652Z,39.80
2017-05-31T13:15:44.576Z,41.00
2017-05-31T13:18:13.604Z,40.90
2017-05-31T13:20:42.597Z,36.20
2017-05-31T13:23:11.586Z,36.10
2017-05-31T13:25:40.577Z,36.00
2017-05-31T13:28:09.504Z,38.60
2017-05-31T13:30:38.428Z,36.50
2017-05-31T13:33:07.459Z,36.50
2017-05-31T13:35:36.462Z,36.30
2017-05-31T13:38:05.723Z,36.40
2017-05-31T13:40:34.683Z,36.40
2017-05-31T13:43:03.612Z,35.20
2017-05-31T13:45:32.536Z,35.00
2017-05-31T13:48:01.516Z,37.30
2017-05-31T13:50:30.441Z,36.00
2017-05-31T13:52:59.365Z,35.10
2017-05-31T13:55:28.328Z,34.60
2017-05-31T13:57:57.302Z,35.40
2017-05-31T14:00:26.291Z,34.50
2017-05-31T14:02:55.213Z,34.70
2017-05-31T14:05:24.188Z,34.40
2017-05-31T14:07:53.181Z,33.80
2017-05-31T14:10:22.166Z,34.70
2017-05-31T14:12:51.157Z,35.60
2017-05-31T14:15:20.080Z,35.60
2017-05-31T14:17:49.080Z,36.50
2017-05-31T14:20:18.057Z,37.00
2017-05-31T14:22:47.059Z,37.30
2017-05-31T14:25:15.980Z,36.40
2017-05-31T14:27:45.001Z,35.80
2017-05-31T14:30:13.988Z,37.00
2017-05-31T14:32:42.981Z,35.90
2017-05-31T14:35:11.906Z,36.30
2017-05-31T14:37:40.864Z,36.30
2017-05-31T14:40:09.825Z,35.40
2017-05-31T14:42:38.748Z,37.10
2017-05-31T14:45:07.737Z,36.70
2017-05-31T14:47:36.701Z,33.10
2017-05-31T14:50:06.296Z,34.10
2017-05-31T14:52:35.337Z,29.50
2017-05-31T14:55:04.264Z,27.40
2017-05-31T14:57:33.189Z,28.10
2017-05-31T15:00:02.158Z,28.00
2017-05-31T15:02:31.093Z,25.50
2017-05-31T15:05:00.052Z,26.00
2017-05-31T15:07:28.972Z,24.20
2017-05-31T15:09:57.969Z,24.70
2017-05-31T15:12:26.968Z,23.60
2017-05-31T15:14:55.960Z,25.10
2017-05-31T15:17:25.045Z,23.40
2017-05-31T15:19:53.973Z,21.70
2017-05-31T15:22:22.951Z,23.60
2017-05-31T15:24:52.000Z,24.20
2017-05-31T15:27:27.582Z,22.10
2017-05-31T15:29:56.508Z,22.50
2017-05-31T15:35:01.093Z,19.80
2017-05-31T15:37:30.062Z,20.90
2017-05-31T15:39:59.086Z,21.10
2017-05-31T15:42:28.064Z,21.40
2017-05-31T15:44:56.987Z,23.10
2017-05-31T15:47:25.907Z,23.60
2017-05-31T15:49:54.877Z,21.20
2017-05-31T15:52:23.840Z,21.40
2017-05-31T15:54:52.805Z,19.50
2017-05-31T15:57:21.764Z,19.40
2017-05-31T15:59:50.737Z,19.80
2017-05-31T16:02:19.661Z,20.20
2017-05-31T16:04:48.624Z,20.60
2017-05-31T16:07:17.616Z,20.50
2017-05-31T16:09:46.536Z,19.00
2017-05-31T16:12:15.460Z,19.20
2017-05-31T16:14:44.493Z,19.90
2017-05-31T16:17:13.478Z,20.30
2017-05-31T16:19:42.396Z,21.40
2017-05-31T16:22:11.325Z,21.00
2017-05-31T16:24:40.305Z,21.40
2017-05-31T16:27:09.252Z,21.60
2017-05-31T16:29:38.246Z,20.30
2017-05-31T16:32:07.257Z,20.30
2017-05-31T16:34:36.232Z,20.60
2017-05-31T16:37:05.168Z,20.30
2017-05-31T16:39:34.315Z,20.80
2017-05-31T16:42:03.236Z,19.70
2017-05-31T16:44:32.208Z,20.30
2017-05-31T16:47:01.177Z,21.40
2017-05-31T16:49:30.116Z,20.70
2017-05-31T16:51:59.045Z,21.50
2017-05-31T16:54:28.105Z,22.50
2017-05-31T16:56:57.032Z,24.30
2017-05-31T16:59:26.008Z,27.50
2017-05-31T17:01:54.984Z,28.30
2017-05-31T17:04:23.913Z,29.10
2017-05-31T17:06:52.873Z,29.80
2017-05-31T17:09:21.848Z,31.10
2017-05-31T17:11:50.781Z,30.80
2017-05-31T17:14:19.744Z,31.30
2017-05-31T17:16:48.720Z,32.70
2017-05-31T17:19:17.640Z,32.10
2017-05-31T17:21:46.560Z,32.30
2017-05-31T17:24:15.531Z,32.10
2017-05-31T17:26:44.501Z,30.90
2017-05-31T17:29:13.428Z,31.70
2017-05-31T17:31:42.404Z,31.60
2017-05-31T17:34:11.360Z,31.60
2017-05-31T17:36:40.279Z,32.10
2017-05-31T17:39:09.256Z,32.30
2017-05-31T17:41:38.250Z,32.40
2017-05-31T17:44:07.353Z,33.50
2017-05-31T17:46:36.341Z,31.30
2017-05-31T17:49:05.328Z,31.10
2017-05-31T17:51:34.289Z,29.30
2017-05-31T17:54:03.301Z,27.90
2017-05-31T17:56:32.310Z,27.00
2017-05-31T17:59:01.273Z,25.20
2017-05-31T18:01:30.285Z,25.40
2017-05-31T18:03:59.208Z,26.30
2017-05-31T18:06:28.133Z,27.90
2017-05-31T18:09:00.356Z,29.30
2017-05-31T18:11:29.277Z,30.60
2017-05-31T18:13:58.287Z,31.60
2017-05-31T18:16:27.216Z,32.80
2017-05-31T18:18:56.256Z,34.40
2017-05-31T18:21:25.364Z,35.20
2017-05-31T18:23:54.337Z,35.40
2017-05-31T18:26:23.338Z,36.20
2017-05-31T18:28:52.341Z,36.60
2017-05-31T18:31:21.265Z,37.10
2017-05-31T18:33:50.197Z,37.40
2017-05-31T18:36:19.156Z,37.50
2017-05-31T18:38:48.137Z,38.20
2017-05-31T18:41:17.066Z,39.30
2017-05-31T18:43:46.060Z,39.90
2017-05-31T18:46:15.040Z,39.60
2017-05-31T18:48:44.043Z,40.10
2017-05-31T18:51:13.035Z,40.10
2017-05-31T18:53:42.096Z,40.30
2017-05-31T18:56:11.129Z,40.50
2017-05-31T18:58:40.117Z,41.60
2017-05-31T19:01:09.050Z,40.40
2017-05-31T19:03:37.972Z,41.90
2017-05-31T19:06:06.951Z,41.00
2017-05-31T19:08:35.884Z,41.80
2017-05-31T19:11:04.881Z,43.00
2017-05-31T19:13:33.869Z,43.10
2017-05-31T19:16:02.793Z,44.40
2017-05-31T19:18:31.772Z,43.70
2017-05-31T19:21:00.756Z,43.50
2017-05-31T19:23:29.685Z,46.60
2017-05-31T19:25:58.660Z,47.00
2017-05-31T19:28:27.645Z,45.60
2017-05-31T19:30:56.568Z,44.80
2017-05-31T19:33:25.552Z,45.50
2017-05-31T19:35:54.479Z,45.50
2017-05-31T19:38:23.397Z,46.00
2017-05-31T19:40:52.371Z,47.30
2017-05-31T19:43:21.295Z,46.40
2017-05-31T19:45:50.266Z,46.40
2017-05-31T19:48:19.268Z,46.70
2017-05-31T19:50:48.204Z,46.00
2017-05-31T19:53:17.160Z,46.00
2017-05-31T19:55:46.138Z,45.70
2017-05-31T19:58:15.152Z,45.70
2017-05-31T20:00:44.137Z,46.00
2017-05-31T20:03:13.059Z,45.90
2017-05-31T20:05:42.044Z,46.50
2017-05-31T20:08:11.017Z,47.40
2017-05-31T20:10:40.016Z,47.80
2017-05-31T20:13:08.992Z,47.20
2017-05-31T20:15:37.992Z,47.30
2017-05-31T20:18:06.993Z,48.80
2017-05-31T20:20:35.956Z,50.40
2017-05-31T20:23:04.932Z,50.30
2017-05-31T20:25:33.932Z,50.20
2017-05-31T20:28:02.868Z,49.30
2017-05-31T20:30:31.853Z,49.70
2017-05-31T20:33:00.807Z,48.80
2017-05-31T20:35:29.725Z,48.80
2017-05-31T20:37:58.696Z,48.70
2017-05-31T20:40:27.664Z,48.80
2017-05-31T20:42:56.588Z,48.30
2017-05-31T20:45:25.556Z,48.70
2017-05-31T20:47:54.485Z,47.80
2017-05-31T20:50:23.409Z,47.30
2017-05-31T20:52:52.386Z,47.90
2017-05-31T20:55:21.359Z,48.10
2017-05-31T20:57:50.313Z,48.40
2017-05-31T21:00:19.275Z,47.90
2017-05-31T21:02:48.208Z,47.20
2017-05-31T21:05:17.196Z,47.10
2017-05-31T21:07:46.177Z,47.50
2017-05-31T21:10:15.101Z,47.40
2017-05-31T21:12:44.060Z,47.70
2017-05-31T21:15:12.983Z,47.70
2017-05-31T21:17:41.952Z,47.80
2017-05-31T21:20:10.936Z,48.10
2017-05-31T21:22:39.905Z,48.70
2017-05-31T21:25:08.880Z,49.70
2017-05-31T21:27:37.817Z,50.10
2017-05-31T21:30:06.825Z,49.20
2017-05-31T21:32:35.788Z,50.70
2017-05-31T21:35:04.712Z,49.90
2017-05-31T21:37:33.685Z,49.40
2017-05-31T21:40:02.653Z,50.00
2017-05-31T21:42:31.624Z,49.80
2017-05-31T21:45:00.733Z,49.80
2017-05-31T21:47:29.676Z,51.50
2017-05-31T21:49:58.635Z,50.70
2017-05-31T21:52:27.559Z,51.50
2017-05-31T21:54:56.520Z,50.70
2017-05-31T21:57:25.441Z,51.10
2017-05-31T21:59:54.399Z,51.70
2017-05-31T22:02:23.429Z,52.30
2017-05-31T22:04:52.520Z,52.10
2017-05-31T22:07:21.440Z,52.80
2017-05-31T22:09:50.365Z,53.40
2017-05-31T22:12:19.433Z,53.40
2017-05-31T22:14:48.428Z,53.40
2017-05-31T22:17:17.387Z,54.60
2017-05-31T22:19:46.468Z,54.50
2017-05-31T22:22:15.398Z,55.20
2017-05-31T22:24:44.323Z,56.20
2017-05-31T22:27:13.280Z,56.90
2017-05-31T22:29:42.245Z,56.70
2017-05-31T22:32:11.169Z,57.80
2017-05-31T22:34:40.141Z,58.90
2017-05-31T22:37:09.113Z,57.40
2017-05-31T22:39:38.161Z,57.70
2017-05-31T22:42:07.092Z,57.70
2017-05-31T22:44:36.040Z,58.10
2017-05-31T22:47:05.004Z,58.30
2017-05-31T22:49:33.937Z,58.10
2017-05-31T22:52:02.898Z,58.90
2017-05-31T22:54:31.873Z,58.70
2017-05-31T22:57:00.848Z,59.50
2017-05-31T22:59:29.792Z,59.50
2017-05-31T23:01:58.788Z,60.40
2017-05-31T23:04:27.769Z,60.00
2017-05-31T23:06:56.772Z,61.00
2017-05-31T23:09:25.703Z,60.80
2017-05-31T23:11:54.668Z,60.40
2017-05-31T23:14:23.588Z,60.80
2017-05-31T23:16:52.556Z,60.80
2017-05-31T23:19:21.481Z,61.00
2017-05-31T23:21:50.456Z,61.30
2017-05-31T23:24:19.421Z,61.30
2017-05-31T23:26:48.349Z,63.10
2017-05-31T23:29:20.453Z,62.00
2017-05-31T23:31:49.384Z,62.80
2017-05-31T23:34:18.310Z,63.90
2017-05-31T23:36:47.276Z,63.30
2017-05-31T23:39:16.201Z,63.20
2017-05-31T23:41:45.216Z,63.90
2017-05-31T23:44:14.190Z,63.20
2017-05-31T23:46:43.200Z,63.30
2017-05-31T23:49:12.199Z,63.90
2017-05-31T23:51:41.194Z,64.30
2017-05-31T23:54:10.125Z,64.20
2017-05-31T23:56:39.047Z,64.90
2017-05-31T23:59:08.016Z,65.20
